createdAt,value
2022-09-27T00:04:54.590Z,11.50
2022-09-27T00:07:26.654Z,10.98
2022-09-27T00:09:57.424Z,14.30
2022-09-27T00:12:26.316Z,11.53
2022-09-27T00:14:55.173Z,13.95
2022-09-27T00:17:32.888Z,11.38
2022-09-27T00:20:10.115Z,12.47
2022-09-27T00:22:53.599Z,13.68
2022-09-27T00:28:01.670Z,17.85
2022-09-27T00:28:40.641Z,11.80
2022-09-27T00:30:59.021Z,11.65
2022-09-27T00:33:17.384Z,14.30
2022-09-27T00:35:54.277Z,16.23
2022-09-27T00:38:29.307Z,10.35
2022-09-27T00:41:21.073Z,14.87
2022-09-27T00:44:02.902Z,15.05
2022-09-27T00:46:52.799Z,14.18
2022-09-27T00:49:40.446Z,14.63
2022-09-27T00:52:16.928Z,11.68
2022-09-27T00:54:53.315Z,12.40
2022-09-27T00:57:24.835Z,10.55
2022-09-27T01:02:56.812Z,15.95
2022-09-27T01:05:29.454Z,15.45
2022-09-27T01:11:02.382Z,14.78
2022-09-27T01:13:36.961Z,12.75
2022-09-27T01:16:28.154Z,15.03
2022-09-27T01:19:07.864Z,12.10
2022-09-27T01:21:45.543Z,14.33
2022-09-27T01:24:26.618Z,14.55
2022-09-27T01:27:18.375Z,12.30
2022-09-27T01:29:57.425Z,12.10
2022-09-27T01:32:51.735Z,18.40
2022-09-27T01:35:29.050Z,13.00
2022-09-27T01:38:33.983Z,14.13
2022-09-27T01:41:14.651Z,12.95
2022-09-27T01:43:51.989Z,14.33
2022-09-27T01:46:26.296Z,13.55
2022-09-27T01:49:00.079Z,13.70
2022-09-27T01:51:35.388Z,14.25
2022-09-27T01:54:10.042Z,14.60
2022-09-27T01:56:42.373Z,12.15
2022-09-27T01:59:25.491Z,19.17
2022-09-27T02:01:59.067Z,13.08
2022-09-27T02:04:38.438Z,13.70
2022-09-27T02:07:17.056Z,13.13
2022-09-27T02:09:51.685Z,13.35
2022-09-27T02:12:24.968Z,14.68
2022-09-27T02:15:09.191Z,13.85
2022-09-27T02:17:48.556Z,13.95
2022-09-27T02:20:38.351Z,16.77
2022-09-27T02:23:35.227Z,11.75
2022-09-27T02:26:06.856Z,12.10
2022-09-27T02:28:47.629Z,12.58
2022-09-27T02:31:19.325Z,12.37
2022-09-27T02:34:06.292Z,16.40
2022-09-27T02:36:35.377Z,12.00
2022-09-27T02:39:06.939Z,11.97
2022-09-27T02:41:37.427Z,14.95
2022-09-27T02:44:09.473Z,11.28
2022-09-27T02:46:47.217Z,12.90
2022-09-27T02:49:33.910Z,17.12
2022-09-27T02:52:40.215Z,12.80
2022-09-27T02:55:21.118Z,12.15
2022-09-27T02:57:58.936Z,13.65
2022-09-27T03:00:30.568Z,18.60
2022-09-27T03:03:24.000Z,11.38
2022-09-27T03:06:01.872Z,13.28
2022-09-27T03:08:36.602Z,13.10
2022-09-27T03:11:05.490Z,12.45
2022-09-27T03:13:55.473Z,14.60
2022-09-27T03:19:14.345Z,14.13
2022-09-27T03:21:42.989Z,12.15
2022-09-27T03:24:11.733Z,15.25
2022-09-27T03:26:40.417Z,11.68
2022-09-27T03:29:09.109Z,13.20
2022-09-27T03:31:37.989Z,12.13
2022-09-27T03:34:10.775Z,15.75
2022-09-27T03:36:41.483Z,15.20
2022-09-27T03:39:10.262Z,14.28
2022-09-27T03:41:41.846Z,14.47
2022-09-27T03:44:16.434Z,16.25
2022-09-27T03:46:45.276Z,15.28
2022-09-27T03:49:15.138Z,15.72
2022-09-27T03:51:47.033Z,15.50
2022-09-27T03:54:18.906Z,14.78
2022-09-27T03:56:50.969Z,14.93
2022-09-27T03:59:19.671Z,16.17
2022-09-27T04:01:51.795Z,17.07
2022-09-27T04:04:26.345Z,14.87
2022-09-27T04:07:02.296Z,14.85
2022-09-27T04:09:44.416Z,16.97
2022-09-27T04:12:11.590Z,16.55
2022-09-27T04:14:42.241Z,14.35
2022-09-27T04:17:21.953Z,19.57
2022-09-27T04:20:08.008Z,15.30
2022-09-27T04:22:48.009Z,16.97
2022-09-27T04:25:19.445Z,18.07
2022-09-27T04:28:02.247Z,17.67
2022-09-27T04:30:42.135Z,23.73
2022-09-27T04:33:12.654Z,22.42
2022-09-27T04:36:13.043Z,19.30
2022-09-27T04:38:44.213Z,23.10
2022-09-27T04:41:17.011Z,18.60
2022-09-27T04:43:58.740Z,16.02
2022-09-27T04:46:37.095Z,20.80
2022-09-27T04:49:10.340Z,16.97
2022-09-27T04:51:46.308Z,18.73
2022-09-27T04:54:17.850Z,16.30
2022-09-27T04:57:01.844Z,18.25
2022-09-27T04:59:48.633Z,17.07
2022-09-27T05:06:58.933Z,17.92
2022-09-27T05:08:54.154Z,19.82
2022-09-27T05:11:30.011Z,21.42
2022-09-27T05:14:00.387Z,22.15
2022-09-27T05:16:32.021Z,18.27
2022-09-27T05:19:09.194Z,17.15
2022-09-27T05:21:49.137Z,21.93
2022-09-27T05:24:18.988Z,20.48
2022-09-27T05:26:49.019Z,21.65
2022-09-27T05:29:23.525Z,21.77
2022-09-27T05:31:55.511Z,24.25
2022-09-27T05:34:25.709Z,18.07
2022-09-27T05:36:57.337Z,17.67
2022-09-27T05:39:33.322Z,16.05
2022-09-27T05:42:05.830Z,16.12
2022-09-27T05:44:39.264Z,21.87
2022-09-27T05:47:18.904Z,15.88
2022-09-27T05:49:49.632Z,16.17
2022-09-27T05:52:28.545Z,15.03
2022-09-27T05:54:58.309Z,16.55
2022-09-27T05:57:33.400Z,16.85
2022-09-27T06:00:07.947Z,16.75
2022-09-27T06:02:46.800Z,17.52
2022-09-27T06:05:17.164Z,14.78
2022-09-27T06:07:49.358Z,18.07
2022-09-27T06:10:38.188Z,17.35
2022-09-27T06:13:12.015Z,18.62
2022-09-27T06:15:46.739Z,20.32
2022-09-27T06:18:20.939Z,18.27
2022-09-27T06:20:52.385Z,20.27
2022-09-27T06:26:16.336Z,20.55
2022-09-27T06:28:46.884Z,17.73
2022-09-27T06:31:16.753Z,22.30
2022-09-27T06:33:57.358Z,28.10
2022-09-27T06:36:25.207Z,25.10
2022-09-27T06:38:57.736Z,20.37
2022-09-27T06:41:26.725Z,20.40
2022-09-27T06:43:57.227Z,22.95
2022-09-27T06:46:27.773Z,22.35
2022-09-27T06:49:05.696Z,19.82
2022-09-27T06:51:31.853Z,23.52
2022-09-27T06:54:02.494Z,23.42
2022-09-27T06:56:39.950Z,22.95
2022-09-27T06:59:30.323Z,23.30
2022-09-27T07:02:05.334Z,21.87
2022-09-27T07:04:43.944Z,23.15
2022-09-27T07:07:16.275Z,24.00
2022-09-27T07:09:52.280Z,24.55
2022-09-27T07:12:23.026Z,21.23
2022-09-27T07:14:54.261Z,19.17
2022-09-27T07:17:23.712Z,35.25
2022-09-27T07:19:55.424Z,28.73
2022-09-27T07:22:32.143Z,19.52
2022-09-27T07:25:01.143Z,21.97
2022-09-27T07:27:38.888Z,21.50
2022-09-27T07:30:09.167Z,23.73
2022-09-27T07:32:38.680Z,18.75
2022-09-27T07:35:10.183Z,23.92
2022-09-27T07:37:41.632Z,22.15
2022-09-27T07:40:33.387Z,27.60
2022-09-27T07:43:10.740Z,26.90
2022-09-27T07:45:41.943Z,22.13
2022-09-27T07:48:16.544Z,26.25
2022-09-27T07:50:47.174Z,25.85
2022-09-27T07:53:22.372Z,26.55
2022-09-27T07:56:10.525Z,22.00
2022-09-27T07:58:29.890Z,24.43
2022-09-27T08:01:06.109Z,21.65
2022-09-27T08:03:44.302Z,24.30
2022-09-27T08:06:16.265Z,18.67
2022-09-27T08:08:50.764Z,17.65
2022-09-27T08:11:29.371Z,19.80
2022-09-27T08:14:17.390Z,20.32
2022-09-27T08:16:42.899Z,23.07
2022-09-27T08:19:13.354Z,26.55
2022-09-27T08:21:47.995Z,28.45
2022-09-27T08:24:21.494Z,29.57
2022-09-27T08:26:56.228Z,33.33
2022-09-27T08:29:34.186Z,24.80
2022-09-27T08:32:08.098Z,23.35
2022-09-27T08:37:44.109Z,25.25
2022-09-27T08:40:20.810Z,22.30
2022-09-27T08:43:13.272Z,18.70
2022-09-27T08:46:12.994Z,20.00
2022-09-27T08:48:46.092Z,26.05
2022-09-27T08:51:16.918Z,19.75
2022-09-27T08:53:54.504Z,23.83
2022-09-27T08:56:32.024Z,20.08
2022-09-27T09:02:36.728Z,19.17
2022-09-27T09:05:41.273Z,18.52
2022-09-27T09:08:20.687Z,14.65
2022-09-27T09:11:16.311Z,16.60
2022-09-27T09:13:59.938Z,15.63
2022-09-27T09:16:38.855Z,17.52
2022-09-27T09:19:18.462Z,15.53
2022-09-27T09:21:52.587Z,18.27
2022-09-27T09:24:33.225Z,19.17
2022-09-27T09:27:21.633Z,19.42
2022-09-27T09:36:49.335Z,18.40
2022-09-27T09:39:37.740Z,14.18
2022-09-27T09:42:19.023Z,13.55
2022-09-27T09:45:27.072Z,12.13
2022-09-27T09:48:20.302Z,15.60
2022-09-27T09:51:01.271Z,12.75
2022-09-27T09:53:50.109Z,15.03
2022-09-27T09:56:41.546Z,15.80
2022-09-27T09:59:21.771Z,12.10
2022-09-27T10:01:56.459Z,12.80
2022-09-27T10:07:34.760Z,13.80
2022-09-27T10:10:15.462Z,12.47
2022-09-27T10:12:56.699Z,15.83
2022-09-27T10:19:52.238Z,10.98
2022-09-27T10:22:39.057Z,15.35
2022-09-27T10:25:10.239Z,15.38
2022-09-27T10:37:39.998Z,20.08
2022-09-27T10:43:37.081Z,14.68
2022-09-27T10:49:38.891Z,12.33
2022-09-27T10:52:25.409Z,10.20
2022-09-27T10:55:00.158Z,9.65
2022-09-27T10:57:31.666Z,9.58
2022-09-27T11:00:09.153Z,11.25
2022-09-27T11:02:50.143Z,10.03
2022-09-27T11:05:37.071Z,9.83
2022-09-27T11:09:23.838Z,11.28
2022-09-27T11:11:45.462Z,11.55
2022-09-27T11:14:26.122Z,10.58
2022-09-27T11:17:29.504Z,9.83
2022-09-27T11:20:31.266Z,13.18
2022-09-27T11:29:40.802Z,9.28
2022-09-27T11:32:49.153Z,8.68
2022-09-27T11:35:59.426Z,9.75
2022-09-27T11:38:52.765Z,10.93
2022-09-27T11:41:42.396Z,10.08
2022-09-27T11:44:33.444Z,8.90
2022-09-27T11:47:18.981Z,9.93
2022-09-27T12:00:23.341Z,10.18
2022-09-27T12:03:23.929Z,9.58
2022-09-27T12:06:07.090Z,6.58
2022-09-27T12:08:42.790Z,7.42
2022-09-27T12:11:22.240Z,7.28
2022-09-27T12:14:11.377Z,9.00
2022-09-27T12:16:48.555Z,9.90
2022-09-27T12:19:32.196Z,11.00
2022-09-27T12:22:06.697Z,7.28
2022-09-27T12:24:54.137Z,13.03
2022-09-27T12:27:38.290Z,8.78
2022-09-27T12:30:07.976Z,7.40
2022-09-27T12:32:47.541Z,11.40
2022-09-27T12:35:30.273Z,4.97
2022-09-27T12:41:27.981Z,7.05
2022-09-27T12:43:58.086Z,8.90
2022-09-27T12:46:35.480Z,7.78
2022-09-27T12:49:12.915Z,6.72
2022-09-27T12:51:56.264Z,5.03
2022-09-27T12:54:31.445Z,7.45
2022-09-27T12:57:05.709Z,10.63
2022-09-27T12:59:39.917Z,6.42
2022-09-27T13:02:29.633Z,5.80
2022-09-27T13:05:19.269Z,4.67
2022-09-27T13:07:56.719Z,4.15
2022-09-27T13:10:32.802Z,4.15
2022-09-27T13:13:04.750Z,8.88
2022-09-27T13:15:39.925Z,6.62
2022-09-27T13:18:28.510Z,6.72
2022-09-27T13:20:57.411Z,17.25
2022-09-27T13:23:31.837Z,5.67
2022-09-27T13:26:06.522Z,5.25
2022-09-27T13:28:40.860Z,3.33
2022-09-27T13:31:16.713Z,5.78
2022-09-27T13:33:51.729Z,4.47
2022-09-27T13:36:32.487Z,4.67
2022-09-27T13:39:15.554Z,7.03
2022-09-27T13:41:50.533Z,4.42
2022-09-27T13:44:36.490Z,4.80
2022-09-27T13:47:27.621Z,5.55
2022-09-27T13:50:05.251Z,7.33
2022-09-27T13:52:38.531Z,7.55
2022-09-27T13:55:43.753Z,8.10
2022-09-27T13:58:42.457Z,8.90
2022-09-27T14:01:21.638Z,10.35
2022-09-27T14:03:57.058Z,9.05
2022-09-27T14:06:31.898Z,6.33
2022-09-27T14:09:06.473Z,9.90
2022-09-27T14:11:44.767Z,6.53
2022-09-27T14:14:20.578Z,3.95
2022-09-27T14:16:49.402Z,7.03
2022-09-27T14:19:24.010Z,6.83
2022-09-27T14:21:53.639Z,10.78
2022-09-27T14:24:25.744Z,7.37
2022-09-27T14:27:17.516Z,8.73
2022-09-27T14:29:53.548Z,3.65
2022-09-27T14:32:25.223Z,3.77
2022-09-27T14:35:36.710Z,8.08
2022-09-27T14:38:33.125Z,5.65
2022-09-27T14:40:49.278Z,4.85
2022-09-27T14:43:20.584Z,4.00
2022-09-27T14:45:53.162Z,6.05
2022-09-27T14:48:33.862Z,6.58
2022-09-27T14:51:09.490Z,9.63
2022-09-27T14:53:40.980Z,8.73
2022-09-27T14:56:12.797Z,8.70
2022-09-27T14:58:48.609Z,8.20
2022-09-27T15:01:21.402Z,11.43
2022-09-27T15:03:50.756Z,6.00
2022-09-27T15:06:20.571Z,3.35
2022-09-27T15:08:51.840Z,11.65
2022-09-27T15:11:21.255Z,8.40
2022-09-27T15:14:14.726Z,19.85
2022-09-27T15:16:44.223Z,17.85
2022-09-27T15:19:28.013Z,22.30
2022-09-27T15:22:00.181Z,4.60
2022-09-27T15:24:43.471Z,5.97
2022-09-27T15:27:22.060Z,9.15
2022-09-27T15:29:53.038Z,14.68
2022-09-27T15:32:25.005Z,12.18
2022-09-27T15:34:54.932Z,9.83
2022-09-27T15:37:38.551Z,13.05
2022-09-27T15:40:43.250Z,10.32
2022-09-27T15:43:21.205Z,17.15
2022-09-27T15:45:54.690Z,18.90
2022-09-27T15:48:25.039Z,14.98
2022-09-27T15:50:53.674Z,11.22
2022-09-27T15:53:44.083Z,13.98
2022-09-27T15:56:14.991Z,13.62
2022-09-27T15:58:44.746Z,34.73
2022-09-27T16:01:19.891Z,12.10
2022-09-27T16:03:49.057Z,11.20
2022-09-27T16:06:18.896Z,14.13
2022-09-27T16:08:47.474Z,16.48
2022-09-27T16:11:17.931Z,8.48
2022-09-27T16:13:49.198Z,12.13
2022-09-27T16:16:20.646Z,10.88
2022-09-27T16:18:50.005Z,15.43
2022-09-27T16:21:18.718Z,8.90
2022-09-27T16:23:56.632Z,13.62
2022-09-27T16:26:26.036Z,11.73
2022-09-27T16:28:54.681Z,13.45
2022-09-27T16:31:23.412Z,19.32
2022-09-27T16:33:52.199Z,10.35
2022-09-27T16:36:20.818Z,13.22
2022-09-27T16:38:53.740Z,22.50
2022-09-27T16:41:23.311Z,20.30
2022-09-27T16:43:53.977Z,16.02
2022-09-27T16:46:25.679Z,15.78
2022-09-27T16:48:55.891Z,14.73
2022-09-27T16:51:42.805Z,21.77
2022-09-27T16:54:13.162Z,16.02
2022-09-27T16:56:42.171Z,13.88
2022-09-27T16:59:14.619Z,23.22
2022-09-27T17:01:43.264Z,18.73
2022-09-27T17:04:12.537Z,14.65
2022-09-27T17:06:41.445Z,17.12
2022-09-27T17:09:16.304Z,16.48
2022-09-27T17:11:44.967Z,12.70
2022-09-27T17:14:16.183Z,13.10
2022-09-27T17:16:45.839Z,11.80
2022-09-27T17:19:16.573Z,17.77
2022-09-27T17:21:46.282Z,18.50
2022-09-27T17:24:15.759Z,19.60
2022-09-27T17:26:46.396Z,16.95
2022-09-27T17:29:15.782Z,19.70
2022-09-27T17:31:55.677Z,27.93
2022-09-27T17:34:24.358Z,20.12
2022-09-27T17:36:53.041Z,24.67
2022-09-27T17:39:23.605Z,22.80
2022-09-27T17:41:57.970Z,19.62
2022-09-27T17:44:31.354Z,20.43
2022-09-27T17:47:20.715Z,22.27
2022-09-27T17:50:07.181Z,25.08
2022-09-27T17:52:37.558Z,25.12
2022-09-27T17:55:09.608Z,22.73
2022-09-27T17:57:38.725Z,27.90
2022-09-27T18:00:10.041Z,28.40
2022-09-27T18:02:40.467Z,30.52
2022-09-27T18:05:09.889Z,28.10
2022-09-27T18:07:41.450Z,27.17
2022-09-27T18:10:17.414Z,30.02
2022-09-27T18:12:58.797Z,28.47
2022-09-27T18:15:29.348Z,28.27
2022-09-27T18:18:03.810Z,25.90
2022-09-27T18:20:44.876Z,28.10
2022-09-27T18:23:16.835Z,36.23
2022-09-27T18:25:58.164Z,31.70
2022-09-27T18:28:31.779Z,30.08
2022-09-27T18:31:06.881Z,35.58
2022-09-27T18:33:40.801Z,34.43
2022-09-27T18:36:13.584Z,31.85
2022-09-27T18:38:44.567Z,29.60
2022-09-27T18:41:16.244Z,30.48
2022-09-27T18:43:49.550Z,29.45
2022-09-27T18:46:38.619Z,30.23
2022-09-27T18:48:53.369Z,31.82
2022-09-27T18:51:29.440Z,40.98
2022-09-27T18:54:03.608Z,41.23
2022-09-27T18:56:34.417Z,40.33
2022-09-27T18:59:03.181Z,40.95
2022-09-27T19:01:35.040Z,40.28
2022-09-27T19:04:07.393Z,39.03
2022-09-27T19:06:36.962Z,41.55
2022-09-27T19:09:06.762Z,41.63
2022-09-27T19:11:36.368Z,36.30
2022-09-27T19:14:05.356Z,44.30
2022-09-27T19:16:34.460Z,42.08
2022-09-27T19:19:03.135Z,41.15
2022-09-27T19:21:31.756Z,44.33
2022-09-27T19:24:00.541Z,39.58
2022-09-27T19:26:29.690Z,42.55
2022-09-27T19:28:59.113Z,37.25
2022-09-27T19:34:25.849Z,37.10
2022-09-27T19:36:55.325Z,39.33
2022-09-27T19:39:24.088Z,33.33
2022-09-27T19:41:52.853Z,29.07
2022-09-27T19:44:21.528Z,66.57
2022-09-27T19:46:50.233Z,49.95
2022-09-27T19:49:19.089Z,31.52
2022-09-27T19:53:10.064Z,29.82
2022-09-27T19:55:38.707Z,27.82
2022-09-27T19:58:10.331Z,26.65
2022-09-27T20:00:40.524Z,26.07
2022-09-27T20:03:10.868Z,27.77
2022-09-27T20:05:39.542Z,29.02
2022-09-27T20:08:09.456Z,27.02
2022-09-27T20:10:38.122Z,27.70
2022-09-27T20:13:08.162Z,30.82
2022-09-27T20:15:36.830Z,29.20
2022-09-27T20:18:09.429Z,33.53
2022-09-27T20:20:41.475Z,30.08
2022-09-27T20:23:14.060Z,31.37
2022-09-27T20:25:54.354Z,35.33
2022-09-27T20:28:22.986Z,33.28
2022-09-27T20:31:02.781Z,30.72
2022-09-27T20:33:41.863Z,37.13
2022-09-27T20:36:15.669Z,35.15
2022-09-27T20:38:49.884Z,29.55
2022-09-27T20:41:25.837Z,30.48
2022-09-27T20:44:01.253Z,31.55
2022-09-27T20:46:30.720Z,29.05
2022-09-27T20:49:03.134Z,40.78
2022-09-27T20:51:33.450Z,34.50
2022-09-27T20:54:03.237Z,36.17
2022-09-27T20:56:36.753Z,34.08
2022-09-27T20:59:14.733Z,38.08
2022-09-27T21:01:48.848Z,37.15
2022-09-27T21:04:19.198Z,45.10
2022-09-27T21:06:48.051Z,40.33
2022-09-27T21:09:23.288Z,38.20
2022-09-27T21:11:53.924Z,44.88
2022-09-27T21:14:22.635Z,31.77
2022-09-27T21:16:51.467Z,31.85
2022-09-27T21:19:21.725Z,32.48
2022-09-27T21:21:54.572Z,47.15
2022-09-27T21:24:23.270Z,43.33
2022-09-27T21:26:53.339Z,36.55
2022-09-27T21:29:24.144Z,38.65
2022-09-27T21:31:52.566Z,42.93
2022-09-27T21:34:21.195Z,37.55
2022-09-27T21:36:50.385Z,38.88
2022-09-27T21:39:19.120Z,40.40
2022-09-27T21:41:47.782Z,41.08
2022-09-27T21:44:16.533Z,42.73
2022-09-27T21:46:46.255Z,42.00
2022-09-27T21:49:14.875Z,47.23
2022-09-27T21:51:44.567Z,46.65
2022-09-27T21:54:15.205Z,43.38
2022-09-27T21:56:44.745Z,44.00
2022-09-27T21:59:15.965Z,44.88
2022-09-27T22:01:47.428Z,42.78
2022-09-27T22:04:17.526Z,44.45
2022-09-27T22:06:46.407Z,42.50
2022-09-27T22:09:18.070Z,46.23
2022-09-27T22:11:50.671Z,45.43
2022-09-27T22:14:21.401Z,45.73
2022-09-27T22:16:52.931Z,50.00
2022-09-27T22:19:21.655Z,40.80
2022-09-27T22:21:50.344Z,36.30
2022-09-27T22:24:19.954Z,41.83
2022-09-27T22:26:53.911Z,41.75
2022-09-27T22:29:22.627Z,48.83
2022-09-27T22:31:51.415Z,46.42
2022-09-27T22:34:22.092Z,42.53
2022-09-27T22:36:51.162Z,45.40
2022-09-27T22:39:24.369Z,41.10
2022-09-27T22:41:53.068Z,45.33
2022-09-27T22:44:24.263Z,45.52
2022-09-27T22:46:53.126Z,49.27
2022-09-27T22:49:21.955Z,39.08
2022-09-27T22:51:50.624Z,42.50
2022-09-27T22:54:22.202Z,42.70
2022-09-27T22:56:52.400Z,43.65
2022-09-27T22:59:21.084Z,42.53
2022-09-27T23:01:52.763Z,46.68
2022-09-27T23:04:26.892Z,38.92
2022-09-27T23:06:55.631Z,46.42
2022-09-27T23:09:25.805Z,49.95
2022-09-27T23:11:55.900Z,55.88
2022-09-27T23:14:26.124Z,55.20
2022-09-27T23:16:54.865Z,60.23
2022-09-27T23:19:23.503Z,63.58
2022-09-27T23:21:54.195Z,79.40
2022-09-27T23:24:23.663Z,80.03
2022-09-27T23:26:53.946Z,77.62
2022-09-27T23:29:22.689Z,98.78
2022-09-27T23:31:51.456Z,67.37
2022-09-27T23:34:21.797Z,65.83
2022-09-27T23:36:51.204Z,76.95
2022-09-27T23:39:19.904Z,73.25
2022-09-27T23:41:48.588Z,73.22
2022-09-27T23:44:17.326Z,99.97
2022-09-27T23:46:46.264Z,117.42
2022-09-27T23:49:18.108Z,119.55
2022-09-27T23:51:48.494Z,84.92
2022-09-27T23:54:17.079Z,104.25
2022-09-27T23:56:45.745Z,76.75
2022-09-27T23:59:14.848Z,55.67
